Pagrindinis puslapis
METAR-TAF:

METAR-TAF

Oro uostai :

Algeras, Italija

platuma: 40-38N, ilguma: 008-17E, Aukštis: 23 m

Dabartinis oras

Ataskaita buvo paskelbta 37 minutes, ne 19:20 UTC
Vėjas 7 kt iš Rytų/Šiaurės Rytų
Temperatūra 23°C
Drėgmė 83%
Slėgis 1017 hPa
Matomumas 10 km arba daugiau
nėra debesų žemiau 1500 m ir nėra kamuolinių lietaus debesų

METAR: LIEA 191920Z 06007KT CAVOK 23/20 Q1017

Laikas: 21:57 (19:57 UTC)

Prognozė

Ataskaita buvo paskelbta 2 valandos ir 57 minutes, ne 17:00 UTC
Prognozė galioja nuo 19 metu 18 UTC su 20 metu 18 UTC
Vėjas 10 kt iš Šiaurės/Šiaurės Vakarų
Matomumas 10 km arba daugiau
Mažai debesys ne aukštis 4000 ft

TAF: LIEA 191700Z 1918/2018 34010KT 9999 FEW040

Orai ataskaitas ir orų prognozės (METAR, TAF).

turimą stotys yra geltonos ir raudonos taškus žemėlapyje.

Perkelti pele per norėdami pamatyti stoties vardą.

Tada spustelėkite, norėdami matyti oro stebėjimo ir prognozės.

Norėdami pakeisti žemėlapį: spustelėkite ant žalios mygtukų su juodo kryžiaus žemyn,; žalią mygtuką su brūkšneliu, jei norite nutolinti; arba žalių rodyklių gretimoms žemėlapius.


METAR-TAF: